sensor_id;sensor_type;location;lat;lon;timestamp;temperature;humidity
9939;DHT22;5008;50.656;7.188;2023-08-12T00:00:04;21.60;99.90
9939;DHT22;5008;50.656;7.188;2023-08-12T00:02:36;21.60;99.90
9939;DHT22;5008;50.656;7.188;2023-08-12T00:05:31;21.60;99.90
9939;DHT22;5008;50.656;7.188;2023-08-12T00:07:58;21.50;99.90
9939;DHT22;5008;50.656;7.188;2023-08-12T00:10:24;21.60;99.90
9939;DHT22;5008;50.656;7.188;2023-08-12T00:12:51;21.60;99.90
9939;DHT22;5008;50.656;7.188;2023-08-12T00:15:21;21.50;99.90
9939;DHT22;5008;50.656;7.188;2023-08-12T00:17:48;21.40;99.90
9939;DHT22;5008;50.656;7.188;2023-08-12T00:20:16;21.40;99.90
9939;DHT22;5008;50.656;7.188;2023-08-12T00:22:44;21.40;99.90
9939;DHT22;5008;50.656;7.188;2023-08-12T00:25:11;21.30;99.90
9939;DHT22;5008;50.656;7.188;2023-08-12T00:27:38;21.30;99.90
9939;DHT22;5008;50.656;7.188;2023-08-12T00:30:06;21.30;99.90
9939;DHT22;5008;50.656;7.188;2023-08-12T00:32:33;21.20;99.90
9939;DHT22;5008;50.656;7.188;2023-08-12T00:35:00;21.20;99.90
9939;DHT22;5008;50.656;7.188;2023-08-12T00:37:27;21.10;99.90
9939;DHT22;5008;50.656;7.188;2023-08-12T00:39:55;21.00;99.90
9939;DHT22;5008;50.656;7.188;2023-08-12T00:42:22;21.00;99.90
9939;DHT22;5008;50.656;7.188;2023-08-12T00:44:48;21.00;99.90
9939;DHT22;5008;50.656;7.188;2023-08-12T00:47:16;21.00;99.90
9939;DHT22;5008;50.656;7.188;2023-08-12T00:49:43;20.90;99.90
9939;DHT22;5008;50.656;7.188;2023-08-12T00:52:11;21.00;99.90
9939;DHT22;5008;50.656;7.188;2023-08-12T00:54:38;21.00;99.90
9939;DHT22;5008;50.656;7.188;2023-08-12T00:57:07;21.00;99.90
9939;DHT22;5008;50.656;7.188;2023-08-12T00:59:35;20.90;99.90
9939;DHT22;5008;50.656;7.188;2023-08-12T01:02:03;20.90;99.90
9939;DHT22;5008;50.656;7.188;2023-08-12T01:04:30;20.90;99.90
9939;DHT22;5008;50.656;7.188;2023-08-12T01:06:57;20.90;99.90
9939;DHT22;5008;50.656;7.188;2023-08-12T01:09:24;20.90;99.90
9939;DHT22;5008;50.656;7.188;2023-08-12T01:11:57;20.80;99.90
9939;DHT22;5008;50.656;7.188;2023-08-12T01:14:35;20.80;99.90
9939;DHT22;5008;50.656;7.188;2023-08-12T01:17:07;20.80;99.90
9939;DHT22;5008;50.656;7.188;2023-08-12T01:19:36;20.80;99.90
9939;DHT22;5008;50.656;7.188;2023-08-12T01:22:05;20.80;99.90
9939;DHT22;5008;50.656;7.188;2023-08-12T01:24:37;20.80;99.90
9939;DHT22;5008;50.656;7.188;2023-08-12T01:27:05;20.80;99.90
9939;DHT22;5008;50.656;7.188;2023-08-12T01:29:33;20.80;99.90
9939;DHT22;5008;50.656;7.188;2023-08-12T01:32:07;20.80;99.90
9939;DHT22;5008;50.656;7.188;2023-08-12T01:34:41;20.80;99.90
9939;DHT22;5008;50.656;7.188;2023-08-12T01:37:11;20.80;99.90
9939;DHT22;5008;50.656;7.188;2023-08-12T01:39:42;20.80;99.90
9939;DHT22;5008;50.656;7.188;2023-08-12T01:42:10;20.80;99.90
9939;DHT22;5008;50.656;7.188;2023-08-12T01:44:38;20.70;99.90
9939;DHT22;5008;50.656;7.188;2023-08-12T01:47:07;20.50;99.90
9939;DHT22;5008;50.656;7.188;2023-08-12T01:49:34;20.60;99.90
9939;DHT22;5008;50.656;7.188;2023-08-12T01:52:01;20.60;99.90
9939;DHT22;5008;50.656;7.188;2023-08-12T01:54:28;20.60;99.90
9939;DHT22;5008;50.656;7.188;2023-08-12T01:57:00;20.50;99.90
9939;DHT22;5008;50.656;7.188;2023-08-12T01:59:28;20.60;99.90
9939;DHT22;5008;50.656;7.188;2023-08-12T02:01:55;20.50;99.90
9939;DHT22;5008;50.656;7.188;2023-08-12T02:04:21;20.60;99.90
9939;DHT22;5008;50.656;7.188;2023-08-12T02:06:48;20.60;99.90
9939;DHT22;5008;50.656;7.188;2023-08-12T02:09:16;20.70;99.90
9939;DHT22;5008;50.656;7.188;2023-08-12T02:11:42;20.60;99.90
9939;DHT22;5008;50.656;7.188;2023-08-12T02:14:11;20.60;99.90
9939;DHT22;5008;50.656;7.188;2023-08-12T02:16:38;20.60;99.90
9939;DHT22;5008;50.656;7.188;2023-08-12T02:19:04;20.60;99.90
9939;DHT22;5008;50.656;7.188;2023-08-12T02:21:31;20.60;99.90
9939;DHT22;5008;50.656;7.188;2023-08-12T02:23:58;20.60;99.90
9939;DHT22;5008;50.656;7.188;2023-08-12T02:26:25;20.60;99.90
9939;DHT22;5008;50.656;7.188;2023-08-12T02:28:52;20.60;99.90
9939;DHT22;5008;50.656;7.188;2023-08-12T02:31:20;20.60;99.90
9939;DHT22;5008;50.656;7.188;2023-08-12T02:33:47;20.60;99.90
9939;DHT22;5008;50.656;7.188;2023-08-12T02:36:14;20.50;99.90
9939;DHT22;5008;50.656;7.188;2023-08-12T02:38:41;20.50;99.90
9939;DHT22;5008;50.656;7.188;2023-08-12T02:41:08;20.60;99.90
9939;DHT22;5008;50.656;7.188;2023-08-12T02:43:35;20.50;99.90
9939;DHT22;5008;50.656;7.188;2023-08-12T02:46:06;20.50;99.90
9939;DHT22;5008;50.656;7.188;2023-08-12T02:48:35;20.40;99.90
9939;DHT22;5008;50.656;7.188;2023-08-12T02:51:02;20.50;99.90
9939;DHT22;5008;50.656;7.188;2023-08-12T02:53:29;20.50;99.90
9939;DHT22;5008;50.656;7.188;2023-08-12T02:55:56;20.50;99.90
9939;DHT22;5008;50.656;7.188;2023-08-12T02:58:23;20.50;99.90
9939;DHT22;5008;50.656;7.188;2023-08-12T03:00:50;20.50;99.90
9939;DHT22;5008;50.656;7.188;2023-08-12T03:03:17;20.50;99.90
9939;DHT22;5008;50.656;7.188;2023-08-12T03:05:47;20.40;99.90
9939;DHT22;5008;50.656;7.188;2023-08-12T03:08:14;20.50;99.90
9939;DHT22;5008;50.656;7.188;2023-08-12T03:10:40;20.40;99.90
9939;DHT22;5008;50.656;7.188;2023-08-12T03:13:07;20.30;99.90
9939;DHT22;5008;50.656;7.188;2023-08-12T03:15:34;20.30;99.90
9939;DHT22;5008;50.656;7.188;2023-08-12T03:18:04;20.30;99.90
9939;DHT22;5008;50.656;7.188;2023-08-12T03:20:31;20.40;99.90
9939;DHT22;5008;50.656;7.188;2023-08-12T03:23:00;20.40;99.90
9939;DHT22;5008;50.656;7.188;2023-08-12T03:25:26;20.40;99.90
9939;DHT22;5008;50.656;7.188;2023-08-12T03:27:53;20.40;99.90
9939;DHT22;5008;50.656;7.188;2023-08-12T03:30:20;20.40;99.90
9939;DHT22;5008;50.656;7.188;2023-08-12T03:32:48;20.40;99.90
9939;DHT22;5008;50.656;7.188;2023-08-12T03:35:15;20.40;99.90
9939;DHT22;5008;50.656;7.188;2023-08-12T03:37:42;20.30;99.90
9939;DHT22;5008;50.656;7.188;2023-08-12T03:40:11;20.30;99.90
9939;DHT22;5008;50.656;7.188;2023-08-12T03:42:38;20.30;99.90
9939;DHT22;5008;50.656;7.188;2023-08-12T03:45:05;20.30;99.90
9939;DHT22;5008;50.656;7.188;2023-08-12T03:47:32;20.30;99.90
9939;DHT22;5008;50.656;7.188;2023-08-12T03:49:59;20.30;99.90
9939;DHT22;5008;50.656;7.188;2023-08-12T03:52:26;20.30;99.90
9939;DHT22;5008;50.656;7.188;2023-08-12T03:54:53;20.30;99.90
9939;DHT22;5008;50.656;7.188;2023-08-12T03:57:21;20.20;99.90
9939;DHT22;5008;50.656;7.188;2023-08-12T03:59:48;20.20;99.90
9939;DHT22;5008;50.656;7.188;2023-08-12T04:02:15;20.20;99.90
9939;DHT22;5008;50.656;7.188;2023-08-12T04:04:42;20.20;99.90
9939;DHT22;5008;50.656;7.188;2023-08-12T04:07:18;20.20;99.90
9939;DHT22;5008;50.656;7.188;2023-08-12T04:09:45;20.20;99.90
9939;DHT22;5008;50.656;7.188;2023-08-12T04:12:12;20.10;99.90
9939;DHT22;5008;50.656;7.188;2023-08-12T04:14:40;20.10;99.90
9939;DHT22;5008;50.656;7.188;2023-08-12T04:17:07;20.10;99.90
9939;DHT22;5008;50.656;7.188;2023-08-12T04:19:34;20.10;99.90
9939;DHT22;5008;50.656;7.188;2023-08-12T04:22:01;20.10;99.90
9939;DHT22;5008;50.656;7.188;2023-08-12T04:24:28;20.10;99.90
9939;DHT22;5008;50.656;7.188;2023-08-12T04:26:54;20.10;99.90
9939;DHT22;5008;50.656;7.188;2023-08-12T04:29:21;20.10;99.90
9939;DHT22;5008;50.656;7.188;2023-08-12T04:31:49;20.10;99.90
9939;DHT22;5008;50.656;7.188;2023-08-12T04:34:18;20.10;99.90
9939;DHT22;5008;50.656;7.188;2023-08-12T04:36:45;20.00;99.90
9939;DHT22;5008;50.656;7.188;2023-08-12T04:39:11;20.10;99.90
9939;DHT22;5008;50.656;7.188;2023-08-12T04:41:38;20.00;99.90
9939;DHT22;5008;50.656;7.188;2023-08-12T04:44:05;20.00;99.90
9939;DHT22;5008;50.656;7.188;2023-08-12T04:46:32;20.00;99.90
9939;DHT22;5008;50.656;7.188;2023-08-12T04:49:03;20.00;99.90
9939;DHT22;5008;50.656;7.188;2023-08-12T04:51:30;20.00;99.90
9939;DHT22;5008;50.656;7.188;2023-08-12T04:53:57;20.00;99.90
9939;DHT22;5008;50.656;7.188;2023-08-12T04:56:25;20.00;99.90
9939;DHT22;5008;50.656;7.188;2023-08-12T04:58:54;20.00;99.90
9939;DHT22;5008;50.656;7.188;2023-08-12T05:01:21;20.00;99.90
9939;DHT22;5008;50.656;7.188;2023-08-12T05:03:48;20.00;99.90
9939;DHT22;5008;50.656;7.188;2023-08-12T05:06:16;20.10;99.90
9939;DHT22;5008;50.656;7.188;2023-08-12T05:08:43;20.00;99.90
9939;DHT22;5008;50.656;7.188;2023-08-12T05:11:10;20.10;99.90
9939;DHT22;5008;50.656;7.188;2023-08-12T05:13:36;20.10;99.90
9939;DHT22;5008;50.656;7.188;2023-08-12T05:16:03;20.10;99.90
9939;DHT22;5008;50.656;7.188;2023-08-12T05:18:30;20.10;99.90
9939;DHT22;5008;50.656;7.188;2023-08-12T05:20:57;20.10;99.90
9939;DHT22;5008;50.656;7.188;2023-08-12T05:23:25;20.10;99.90
9939;DHT22;5008;50.656;7.188;2023-08-12T05:25:53;20.20;99.90
9939;DHT22;5008;50.656;7.188;2023-08-12T05:28:19;20.20;99.90
9939;DHT22;5008;50.656;7.188;2023-08-12T05:30:46;20.20;99.90
9939;DHT22;5008;50.656;7.188;2023-08-12T05:33:15;20.20;99.90
9939;DHT22;5008;50.656;7.188;2023-08-12T05:35:52;20.30;99.90
9939;DHT22;5008;50.656;7.188;2023-08-12T05:38:19;20.40;99.90
9939;DHT22;5008;50.656;7.188;2023-08-12T05:40:47;20.50;99.90
9939;DHT22;5008;50.656;7.188;2023-08-12T05:43:13;20.50;99.90
9939;DHT22;5008;50.656;7.188;2023-08-12T05:45:45;20.50;99.90
9939;DHT22;5008;50.656;7.188;2023-08-12T05:48:12;20.70;99.90
9939;DHT22;5008;50.656;7.188;2023-08-12T05:50:39;20.70;99.90
9939;DHT22;5008;50.656;7.188;2023-08-12T05:53:06;20.80;99.90
9939;DHT22;5008;50.656;7.188;2023-08-12T05:55:33;20.80;99.90
9939;DHT22;5008;50.656;7.188;2023-08-12T05:58:02;20.80;99.90
9939;DHT22;5008;50.656;7.188;2023-08-12T06:00:28;20.90;99.90
9939;DHT22;5008;50.656;7.188;2023-08-12T06:02:55;20.90;99.90
9939;DHT22;5008;50.656;7.188;2023-08-12T06:05:59;20.90;99.90
9939;DHT22;5008;50.656;7.188;2023-08-12T06:08:26;20.90;99.90
9939;DHT22;5008;50.656;7.188;2023-08-12T06:10:52;20.90;99.90
9939;DHT22;5008;50.656;7.188;2023-08-12T06:13:21;20.90;99.90
9939;DHT22;5008;50.656;7.188;2023-08-12T06:15:47;20.70;99.90
9939;DHT22;5008;50.656;7.188;2023-08-12T06:18:47;20.60;99.90
9939;DHT22;5008;50.656;7.188;2023-08-12T06:21:14;20.40;99.90
9939;DHT22;5008;50.656;7.188;2023-08-12T06:23:41;20.20;99.90
9939;DHT22;5008;50.656;7.188;2023-08-12T06:26:08;20.10;99.90
9939;DHT22;5008;50.656;7.188;2023-08-12T06:28:45;20.00;99.90
9939;DHT22;5008;50.656;7.188;2023-08-12T06:31:12;19.90;99.90
9939;DHT22;5008;50.656;7.188;2023-08-12T06:37:02;19.80;99.90
9939;DHT22;5008;50.656;7.188;2023-08-12T06:39:29;19.80;99.90
9939;DHT22;5008;50.656;7.188;2023-08-12T06:41:56;19.90;99.90
9939;DHT22;5008;50.656;7.188;2023-08-12T06:44:25;19.90;99.90
9939;DHT22;5008;50.656;7.188;2023-08-12T06:46:52;19.90;99.90
9939;DHT22;5008;50.656;7.188;2023-08-12T06:49:19;19.90;99.90
9939;DHT22;5008;50.656;7.188;2023-08-12T06:51:51;19.90;99.90
9939;DHT22;5008;50.656;7.188;2023-08-12T06:54:18;19.90;99.90
9939;DHT22;5008;50.656;7.188;2023-08-12T06:56:45;19.90;99.90
9939;DHT22;5008;50.656;7.188;2023-08-12T06:59:11;19.90;99.90
9939;DHT22;5008;50.656;7.188;2023-08-12T07:01:39;19.90;99.90
9939;DHT22;5008;50.656;7.188;2023-08-12T07:04:06;19.90;99.90
9939;DHT22;5008;50.656;7.188;2023-08-12T07:06:33;19.90;99.90
9939;DHT22;5008;50.656;7.188;2023-08-12T07:09:11;20.00;99.90
9939;DHT22;5008;50.656;7.188;2023-08-12T07:11:38;20.00;99.90
9939;DHT22;5008;50.656;7.188;2023-08-12T07:14:05;20.10;99.90
9939;DHT22;5008;50.656;7.188;2023-08-12T07:16:32;20.10;99.90
9939;DHT22;5008;50.656;7.188;2023-08-12T07:19:01;20.10;99.90
9939;DHT22;5008;50.656;7.188;2023-08-12T07:21:28;20.10;99.90
9939;DHT22;5008;50.656;7.188;2023-08-12T07:23:54;20.20;99.90
9939;DHT22;5008;50.656;7.188;2023-08-12T07:26:21;20.20;99.90
9939;DHT22;5008;50.656;7.188;2023-08-12T07:29:16;20.20;99.90
9939;DHT22;5008;50.656;7.188;2023-08-12T07:31:43;20.20;99.90
9939;DHT22;5008;50.656;7.188;2023-08-12T07:34:11;20.20;99.90
9939;DHT22;5008;50.656;7.188;2023-08-12T07:36:39;20.20;99.90
9939;DHT22;5008;50.656;7.188;2023-08-12T07:39:05;20.20;99.90
9939;DHT22;5008;50.656;7.188;2023-08-12T07:41:32;20.30;99.90
9939;DHT22;5008;50.656;7.188;2023-08-12T07:43:59;20.30;99.90
9939;DHT22;5008;50.656;7.188;2023-08-12T07:46:27;20.30;99.90
9939;DHT22;5008;50.656;7.188;2023-08-12T07:48:55;20.30;99.90
9939;DHT22;5008;50.656;7.188;2023-08-12T07:51:23;20.30;99.90
9939;DHT22;5008;50.656;7.188;2023-08-12T07:53:50;20.40;99.90
9939;DHT22;5008;50.656;7.188;2023-08-12T07:56:16;20.40;99.90
9939;DHT22;5008;50.656;7.188;2023-08-12T07:58:43;20.50;99.90
9939;DHT22;5008;50.656;7.188;2023-08-12T08:01:11;20.50;99.90
9939;DHT22;5008;50.656;7.188;2023-08-12T08:03:39;20.60;99.90
9939;DHT22;5008;50.656;7.188;2023-08-12T08:06:06;20.50;99.90
9939;DHT22;5008;50.656;7.188;2023-08-12T08:08:35;20.70;99.90
9939;DHT22;5008;50.656;7.188;2023-08-12T08:11:02;20.70;99.90
9939;DHT22;5008;50.656;7.188;2023-08-12T08:13:39;20.80;99.90
9939;DHT22;5008;50.656;7.188;2023-08-12T08:16:05;20.80;99.90
9939;DHT22;5008;50.656;7.188;2023-08-12T08:18:32;20.90;99.90
9939;DHT22;5008;50.656;7.188;2023-08-12T08:20:59;20.90;99.90
9939;DHT22;5008;50.656;7.188;2023-08-12T08:23:26;21.00;99.90
9939;DHT22;5008;50.656;7.188;2023-08-12T08:25:54;21.10;99.90
9939;DHT22;5008;50.656;7.188;2023-08-12T08:28:22;21.00;99.90
9939;DHT22;5008;50.656;7.188;2023-08-12T08:30:48;21.00;99.90
9939;DHT22;5008;50.656;7.188;2023-08-12T08:33:15;21.00;99.90
9939;DHT22;5008;50.656;7.188;2023-08-12T08:35:42;20.90;99.90
9939;DHT22;5008;50.656;7.188;2023-08-12T08:38:09;20.90;99.90
9939;DHT22;5008;50.656;7.188;2023-08-12T08:40:36;20.80;99.90
9939;DHT22;5008;50.656;7.188;2023-08-12T08:43:07;20.80;99.90
9939;DHT22;5008;50.656;7.188;2023-08-12T08:45:34;20.80;99.90
9939;DHT22;5008;50.656;7.188;2023-08-12T08:48:02;20.80;99.90
9939;DHT22;5008;50.656;7.188;2023-08-12T08:50:30;20.90;99.90
9939;DHT22;5008;50.656;7.188;2023-08-12T08:52:57;20.90;99.90
9939;DHT22;5008;50.656;7.188;2023-08-12T08:55:24;20.90;99.90
9939;DHT22;5008;50.656;7.188;2023-08-12T08:57:51;21.00;99.90
9939;DHT22;5008;50.656;7.188;2023-08-12T09:00:21;21.00;99.90
9939;DHT22;5008;50.656;7.188;2023-08-12T09:02:49;21.00;99.90
9939;DHT22;5008;50.656;7.188;2023-08-12T09:05:17;20.90;99.90
9939;DHT22;5008;50.656;7.188;2023-08-12T09:07:46;21.00;99.90
9939;DHT22;5008;50.656;7.188;2023-08-12T09:10:14;21.00;99.90
9939;DHT22;5008;50.656;7.188;2023-08-12T09:12:41;20.90;99.90
9939;DHT22;5008;50.656;7.188;2023-08-12T09:15:09;20.90;99.90
9939;DHT22;5008;50.656;7.188;2023-08-12T09:17:37;21.00;99.90
9939;DHT22;5008;50.656;7.188;2023-08-12T09:20:05;21.00;99.90
9939;DHT22;5008;50.656;7.188;2023-08-12T09:22:36;21.00;99.90
9939;DHT22;5008;50.656;7.188;2023-08-12T09:25:04;21.00;99.90
9939;DHT22;5008;50.656;7.188;2023-08-12T09:27:31;21.10;99.90
9939;DHT22;5008;50.656;7.188;2023-08-12T09:30:02;21.10;99.90
9939;DHT22;5008;50.656;7.188;2023-08-12T09:32:30;21.20;99.90
9939;DHT22;5008;50.656;7.188;2023-08-12T09:35:01;21.20;99.90
9939;DHT22;5008;50.656;7.188;2023-08-12T09:37:31;21.20;99.90
9939;DHT22;5008;50.656;7.188;2023-08-12T09:39:58;21.30;99.90
9939;DHT22;5008;50.656;7.188;2023-08-12T09:42:28;21.40;99.90
9939;DHT22;5008;50.656;7.188;2023-08-12T09:44:56;21.40;99.90
9939;DHT22;5008;50.656;7.188;2023-08-12T09:47:25;21.40;99.90
9939;DHT22;5008;50.656;7.188;2023-08-12T09:49:52;21.40;99.90
9939;DHT22;5008;50.656;7.188;2023-08-12T09:52:21;21.30;99.90
9939;DHT22;5008;50.656;7.188;2023-08-12T09:54:49;21.40;99.90
9939;DHT22;5008;50.656;7.188;2023-08-12T09:57:18;21.20;99.90
9939;DHT22;5008;50.656;7.188;2023-08-12T09:59:45;21.20;99.90
9939;DHT22;5008;50.656;7.188;2023-08-12T10:02:15;21.20;99.90
9939;DHT22;5008;50.656;7.188;2023-08-12T10:04:45;21.20;99.90
9939;DHT22;5008;50.656;7.188;2023-08-12T10:07:12;21.30;99.90
9939;DHT22;5008;50.656;7.188;2023-08-12T10:09:42;21.30;99.90
9939;DHT22;5008;50.656;7.188;2023-08-12T10:12:10;21.40;99.90
9939;DHT22;5008;50.656;7.188;2023-08-12T10:14:38;21.40;99.90
9939;DHT22;5008;50.656;7.188;2023-08-12T10:17:07;21.30;99.90
9939;DHT22;5008;50.656;7.188;2023-08-12T10:19:36;21.30;99.90
9939;DHT22;5008;50.656;7.188;2023-08-12T10:22:03;21.10;99.90
9939;DHT22;5008;50.656;7.188;2023-08-12T10:24:33;21.20;99.90
9939;DHT22;5008;50.656;7.188;2023-08-12T10:27:02;21.10;99.90
9939;DHT22;5008;50.656;7.188;2023-08-12T10:29:29;21.00;99.90
9939;DHT22;5008;50.656;7.188;2023-08-12T10:31:57;21.10;99.90
9939;DHT22;5008;50.656;7.188;2023-08-12T10:34:25;21.10;99.90
9939;DHT22;5008;50.656;7.188;2023-08-12T10:36:54;21.10;99.90
9939;DHT22;5008;50.656;7.188;2023-08-12T10:39:24;21.10;99.90
9939;DHT22;5008;50.656;7.188;2023-08-12T10:41:54;21.10;99.90
9939;DHT22;5008;50.656;7.188;2023-08-12T10:44:26;21.00;99.90
9939;DHT22;5008;50.656;7.188;2023-08-12T10:46:53;21.00;99.90
9939;DHT22;5008;50.656;7.188;2023-08-12T10:49:21;21.20;99.90
9939;DHT22;5008;50.656;7.188;2023-08-12T10:51:49;21.30;99.90
9939;DHT22;5008;50.656;7.188;2023-08-12T10:54:18;21.30;99.90
9939;DHT22;5008;50.656;7.188;2023-08-12T10:57:05;21.40;99.90
9939;DHT22;5008;50.656;7.188;2023-08-12T10:59:51;21.40;99.90
9939;DHT22;5008;50.656;7.188;2023-08-12T11:02:21;21.50;99.90
9939;DHT22;5008;50.656;7.188;2023-08-12T11:04:49;21.40;99.90
9939;DHT22;5008;50.656;7.188;2023-08-12T11:07:18;21.50;99.90
9939;DHT22;5008;50.656;7.188;2023-08-12T11:09:45;21.70;99.90
9939;DHT22;5008;50.656;7.188;2023-08-12T11:12:17;21.80;99.90
9939;DHT22;5008;50.656;7.188;2023-08-12T11:14:48;21.80;99.90
9939;DHT22;5008;50.656;7.188;2023-08-12T11:17:16;21.80;99.90
9939;DHT22;5008;50.656;7.188;2023-08-12T11:19:55;21.90;99.90
9939;DHT22;5008;50.656;7.188;2023-08-12T11:22:22;21.80;99.90
9939;DHT22;5008;50.656;7.188;2023-08-12T11:24:49;21.70;99.90
9939;DHT22;5008;50.656;7.188;2023-08-12T11:27:17;21.70;99.90
9939;DHT22;5008;50.656;7.188;2023-08-12T11:29:44;21.70;99.90
9939;DHT22;5008;50.656;7.188;2023-08-12T11:32:11;21.60;99.90
9939;DHT22;5008;50.656;7.188;2023-08-12T11:34:40;21.60;99.90
9939;DHT22;5008;50.656;7.188;2023-08-12T11:37:07;21.70;99.90
9939;DHT22;5008;50.656;7.188;2023-08-12T11:39:34;21.60;99.90
9939;DHT22;5008;50.656;7.188;2023-08-12T11:42:02;21.70;99.90
9939;DHT22;5008;50.656;7.188;2023-08-12T11:44:29;22.00;99.90
9939;DHT22;5008;50.656;7.188;2023-08-12T11:46:56;21.80;99.90
9939;DHT22;5008;50.656;7.188;2023-08-12T11:49:22;21.90;99.90
9939;DHT22;5008;50.656;7.188;2023-08-12T11:51:53;21.90;99.90
9939;DHT22;5008;50.656;7.188;2023-08-12T11:54:20;22.10;99.90
9939;DHT22;5008;50.656;7.188;2023-08-12T11:56:47;22.20;99.90
9939;DHT22;5008;50.656;7.188;2023-08-12T11:59:13;22.20;99.90
9939;DHT22;5008;50.656;7.188;2023-08-12T12:01:41;22.30;99.90
9939;DHT22;5008;50.656;7.188;2023-08-12T12:04:14;22.30;99.90
9939;DHT22;5008;50.656;7.188;2023-08-12T12:06:41;22.50;99.90
9939;DHT22;5008;50.656;7.188;2023-08-12T12:09:10;22.60;99.90
9939;DHT22;5008;50.656;7.188;2023-08-12T12:11:40;22.60;99.90
9939;DHT22;5008;50.656;7.188;2023-08-12T12:14:08;22.60;99.90
9939;DHT22;5008;50.656;7.188;2023-08-12T12:16:39;22.80;99.90
9939;DHT22;5008;50.656;7.188;2023-08-12T12:19:09;22.80;99.90
9939;DHT22;5008;50.656;7.188;2023-08-12T12:21:40;22.70;99.90
9939;DHT22;5008;50.656;7.188;2023-08-12T12:24:07;22.70;99.90
9939;DHT22;5008;50.656;7.188;2023-08-12T12:26:35;22.70;99.90
9939;DHT22;5008;50.656;7.188;2023-08-12T12:29:03;22.60;99.90
9939;DHT22;5008;50.656;7.188;2023-08-12T12:31:32;22.60;99.90
9939;DHT22;5008;50.656;7.188;2023-08-12T12:34:00;22.60;99.90
9939;DHT22;5008;50.656;7.188;2023-08-12T12:36:27;22.60;99.90
9939;DHT22;5008;50.656;7.188;2023-08-12T12:38:53;22.60;99.90
9939;DHT22;5008;50.656;7.188;2023-08-12T12:41:20;22.60;99.90
9939;DHT22;5008;50.656;7.188;2023-08-12T12:43:49;22.50;99.90
9939;DHT22;5008;50.656;7.188;2023-08-12T12:46:16;22.50;99.90
9939;DHT22;5008;50.656;7.188;2023-08-12T12:48:43;22.40;99.90
9939;DHT22;5008;50.656;7.188;2023-08-12T12:51:10;22.40;99.90
9939;DHT22;5008;50.656;7.188;2023-08-12T12:53:37;22.30;99.90
9939;DHT22;5008;50.656;7.188;2023-08-12T12:56:04;22.50;99.90
9939;DHT22;5008;50.656;7.188;2023-08-12T12:58:32;22.50;99.90
9939;DHT22;5008;50.656;7.188;2023-08-12T13:01:01;22.60;99.90
9939;DHT22;5008;50.656;7.188;2023-08-12T13:03:29;22.90;99.90
9939;DHT22;5008;50.656;7.188;2023-08-12T13:05:56;23.10;99.90
9939;DHT22;5008;50.656;7.188;2023-08-12T13:08:23;23.10;99.90
9939;DHT22;5008;50.656;7.188;2023-08-12T13:10:50;23.20;99.90
9939;DHT22;5008;50.656;7.188;2023-08-12T13:13:18;23.40;99.90
9939;DHT22;5008;50.656;7.188;2023-08-12T13:15:45;23.60;99.90
9939;DHT22;5008;50.656;7.188;2023-08-12T13:18:14;23.80;99.90
9939;DHT22;5008;50.656;7.188;2023-08-12T13:20:41;24.10;99.90
9939;DHT22;5008;50.656;7.188;2023-08-12T13:23:08;24.40;99.90
9939;DHT22;5008;50.656;7.188;2023-08-12T13:25:34;24.30;99.90
9939;DHT22;5008;50.656;7.188;2023-08-12T13:28:01;24.90;99.90
9939;DHT22;5008;50.656;7.188;2023-08-12T13:30:29;25.30;99.90
9939;DHT22;5008;50.656;7.188;2023-08-12T13:32:56;25.50;99.90
9939;DHT22;5008;50.656;7.188;2023-08-12T13:35:24;25.60;99.90
9939;DHT22;5008;50.656;7.188;2023-08-12T13:37:51;25.70;99.90
9939;DHT22;5008;50.656;7.188;2023-08-12T13:40:18;26.10;99.90
9939;DHT22;5008;50.656;7.188;2023-08-12T13:42:45;26.50;99.90
9939;DHT22;5008;50.656;7.188;2023-08-12T13:45:12;27.30;99.90
9939;DHT22;5008;50.656;7.188;2023-08-12T13:47:39;27.20;99.90
9939;DHT22;5008;50.656;7.188;2023-08-12T13:50:07;26.90;99.90
9939;DHT22;5008;50.656;7.188;2023-08-12T13:52:35;26.90;99.90
9939;DHT22;5008;50.656;7.188;2023-08-12T13:55:02;26.70;99.90
9939;DHT22;5008;50.656;7.188;2023-08-12T13:57:29;26.40;99.90
9939;DHT22;5008;50.656;7.188;2023-08-12T13:59:56;26.50;99.90
9939;DHT22;5008;50.656;7.188;2023-08-12T14:02:24;26.60;99.90
9939;DHT22;5008;50.656;7.188;2023-08-12T14:04:51;26.50;99.90
9939;DHT22;5008;50.656;7.188;2023-08-12T14:07:18;26.20;99.90
9939;DHT22;5008;50.656;7.188;2023-08-12T14:09:47;25.90;99.90
9939;DHT22;5008;50.656;7.188;2023-08-12T14:12:14;25.60;99.90
9939;DHT22;5008;50.656;7.188;2023-08-12T14:14:41;25.40;99.90
9939;DHT22;5008;50.656;7.188;2023-08-12T14:17:08;25.40;99.90
9939;DHT22;5008;50.656;7.188;2023-08-12T14:19:39;25.20;99.90
9939;DHT22;5008;50.656;7.188;2023-08-12T14:22:06;25.00;99.90
9939;DHT22;5008;50.656;7.188;2023-08-12T14:24:33;24.70;99.90
9939;DHT22;5008;50.656;7.188;2023-08-12T14:27:01;24.60;99.90
9939;DHT22;5008;50.656;7.188;2023-08-12T14:29:29;24.40;99.90
9939;DHT22;5008;50.656;7.188;2023-08-12T14:31:56;24.40;99.90
9939;DHT22;5008;50.656;7.188;2023-08-12T14:34:23;24.20;99.90
9939;DHT22;5008;50.656;7.188;2023-08-12T14:36:50;23.90;99.90
9939;DHT22;5008;50.656;7.188;2023-08-12T14:39:17;23.90;99.90
9939;DHT22;5008;50.656;7.188;2023-08-12T14:41:43;23.70;99.90
9939;DHT22;5008;50.656;7.188;2023-08-12T14:44:12;23.60;99.90
9939;DHT22;5008;50.656;7.188;2023-08-12T14:46:38;23.50;99.90
9939;DHT22;5008;50.656;7.188;2023-08-12T14:49:05;23.60;99.90
9939;DHT22;5008;50.656;7.188;2023-08-12T14:51:32;23.50;99.90
9939;DHT22;5008;50.656;7.188;2023-08-12T14:53:59;23.40;99.90
9939;DHT22;5008;50.656;7.188;2023-08-12T14:56:26;23.40;99.90
9939;DHT22;5008;50.656;7.188;2023-08-12T14:58:51;23.50;99.90
9939;DHT22;5008;50.656;7.188;2023-08-12T15:01:19;23.40;99.90
9939;DHT22;5008;50.656;7.188;2023-08-12T15:03:46;23.40;99.90
9939;DHT22;5008;50.656;7.188;2023-08-12T15:06:14;23.30;99.90
9939;DHT22;5008;50.656;7.188;2023-08-12T15:08:42;23.20;99.90
9939;DHT22;5008;50.656;7.188;2023-08-12T15:11:09;23.20;99.90
9939;DHT22;5008;50.656;7.188;2023-08-12T15:13:35;23.10;99.90
9939;DHT22;5008;50.656;7.188;2023-08-12T15:16:02;23.10;99.90
9939;DHT22;5008;50.656;7.188;2023-08-12T15:18:31;23.10;99.90
9939;DHT22;5008;50.656;7.188;2023-08-12T15:20:57;23.00;99.90
9939;DHT22;5008;50.656;7.188;2023-08-12T15:23:29;23.00;99.90
9939;DHT22;5008;50.656;7.188;2023-08-12T15:25:56;22.90;99.90
9939;DHT22;5008;50.656;7.188;2023-08-12T15:28:23;22.90;99.90
9939;DHT22;5008;50.656;7.188;2023-08-12T15:30:50;22.90;99.90
9939;DHT22;5008;50.656;7.188;2023-08-12T15:33:17;22.90;99.90
9939;DHT22;5008;50.656;7.188;2023-08-12T15:35:45;22.90;99.90
9939;DHT22;5008;50.656;7.188;2023-08-12T15:38:20;22.80;99.90
9939;DHT22;5008;50.656;7.188;2023-08-12T15:40:47;22.50;99.90
9939;DHT22;5008;50.656;7.188;2023-08-12T15:43:13;22.30;99.90
9939;DHT22;5008;50.656;7.188;2023-08-12T15:45:41;22.10;99.90
9939;DHT22;5008;50.656;7.188;2023-08-12T15:48:08;21.90;99.90
9939;DHT22;5008;50.656;7.188;2023-08-12T15:50:36;22.00;99.90
9939;DHT22;5008;50.656;7.188;2023-08-12T15:53:04;22.00;99.90
9939;DHT22;5008;50.656;7.188;2023-08-12T15:55:31;22.20;99.90
9939;DHT22;5008;50.656;7.188;2023-08-12T15:57:57;22.20;99.90
9939;DHT22;5008;50.656;7.188;2023-08-12T16:00:24;22.40;99.90
9939;DHT22;5008;50.656;7.188;2023-08-12T16:02:51;22.60;99.90
9939;DHT22;5008;50.656;7.188;2023-08-12T16:05:20;22.70;99.90
9939;DHT22;5008;50.656;7.188;2023-08-12T16:07:52;22.80;99.90
9939;DHT22;5008;50.656;7.188;2023-08-12T16:10:21;22.70;99.90